createdAt,value
2019-02-23T00:00:12.732Z,34.57
2019-02-23T00:02:41.751Z,34.00
2019-02-23T00:05:10.606Z,34.97
2019-02-23T00:07:39.435Z,34.30
2019-02-23T00:10:08.785Z,30.53
2019-02-23T00:12:37.604Z,33.23
2019-02-23T00:15:07.044Z,29.60
2019-02-23T00:17:35.845Z,32.53
2019-02-23T00:20:07.031Z,27.37
2019-02-23T00:22:35.798Z,30.70
2019-02-23T00:25:04.947Z,32.50
2019-02-23T00:27:33.873Z,38.33
2019-02-23T00:30:02.937Z,39.80
2019-02-23T00:32:33.026Z,36.80
2019-02-23T00:35:01.786Z,42.40
2019-02-23T00:37:30.520Z,39.00
2019-02-23T00:39:59.210Z,35.23
2019-02-23T00:42:29.613Z,45.30
2019-02-23T00:44:58.353Z,34.40
2019-02-23T00:47:27.259Z,37.37
2019-02-23T00:49:56.031Z,42.43
2019-02-23T00:52:26.407Z,31.90
2019-02-23T00:54:55.158Z,36.73
2019-02-23T00:57:24.098Z,36.93
2019-02-23T00:59:52.861Z,39.83
2019-02-23T01:02:21.582Z,34.73
2019-02-23T01:04:50.354Z,35.47
2019-02-23T01:07:19.160Z,40.47
2019-02-23T01:09:50.030Z,39.27
2019-02-23T01:12:18.845Z,37.57
2019-02-23T01:14:48.904Z,32.63
2019-02-23T01:17:17.947Z,35.00
2019-02-23T01:19:48.051Z,41.73
2019-02-23T01:22:17.203Z,32.23
2019-02-23T01:24:46.411Z,35.70
2019-02-23T01:27:15.162Z,36.87
2019-02-23T01:29:43.866Z,33.70
2019-02-23T01:32:12.622Z,34.93
2019-02-23T01:34:41.272Z,33.50
2019-02-23T01:37:10.142Z,38.20
2019-02-23T01:39:39.004Z,38.37
2019-02-23T01:42:08.542Z,33.97
2019-02-23T01:44:38.521Z,37.90
2019-02-23T01:47:07.340Z,37.53
2019-02-23T01:49:36.137Z,35.90
2019-02-23T01:52:05.230Z,35.53
2019-02-23T01:54:34.081Z,33.70
2019-02-23T01:57:02.901Z,32.30
2019-02-23T01:59:31.658Z,40.27
2019-02-23T02:02:00.447Z,31.67
2019-02-23T02:04:29.206Z,35.00
2019-02-23T02:06:57.961Z,33.80
2019-02-23T02:09:26.824Z,34.23
2019-02-23T02:11:55.806Z,34.43
2019-02-23T02:14:24.876Z,32.73
2019-02-23T02:16:53.663Z,32.87
2019-02-23T02:19:22.413Z,28.13
2019-02-23T02:21:51.132Z,29.73
2019-02-23T02:24:19.873Z,29.07
2019-02-23T02:26:48.646Z,29.50
2019-02-23T02:29:17.450Z,26.67
2019-02-23T02:31:46.348Z,32.23
2019-02-23T02:34:15.937Z,27.97
2019-02-23T02:36:44.974Z,26.80
2019-02-23T02:39:14.267Z,30.60
2019-02-23T02:41:42.968Z,28.30
2019-02-23T02:44:11.692Z,29.70
2019-02-23T02:46:40.493Z,32.90
2019-02-23T02:49:09.520Z,29.93
2019-02-23T02:51:38.259Z,27.00
2019-02-23T02:54:06.974Z,30.27
2019-02-23T02:56:35.786Z,24.90
2019-02-23T02:59:04.486Z,26.80
2019-02-23T03:01:33.232Z,30.30
2019-02-23T03:04:01.916Z,30.00
2019-02-23T03:06:30.758Z,27.83
2019-02-23T03:08:59.441Z,33.53
2019-02-23T03:11:28.125Z,29.03
2019-02-23T03:13:56.864Z,26.87
2019-02-23T03:16:25.659Z,32.77
2019-02-23T03:18:54.439Z,27.17
2019-02-23T03:21:23.266Z,32.47
2019-02-23T03:23:52.060Z,31.53
2019-02-23T03:26:20.783Z,32.07
2019-02-23T03:28:49.527Z,35.33
2019-02-23T03:31:18.417Z,33.80
2019-02-23T03:33:47.184Z,30.90
2019-02-23T03:36:15.957Z,34.50
2019-02-23T03:38:44.778Z,36.80
2019-02-23T03:41:13.565Z,33.10
2019-02-23T03:43:42.313Z,39.73
2019-02-23T03:46:11.047Z,40.83
2019-02-23T03:48:39.818Z,37.17
2019-02-23T03:51:08.643Z,48.47
2019-02-23T03:53:37.387Z,35.87
2019-02-23T03:56:06.240Z,38.57
2019-02-23T03:58:35.032Z,35.27
2019-02-23T04:01:03.738Z,32.00
2019-02-23T04:03:32.450Z,39.73
2019-02-23T04:06:01.207Z,34.63
2019-02-23T04:08:29.978Z,32.93
2019-02-23T04:10:58.750Z,30.73
2019-02-23T04:13:27.598Z,39.77
2019-02-23T04:15:56.319Z,39.10
2019-02-23T04:18:25.065Z,34.30
2019-02-23T04:21:01.757Z,35.53
2019-02-23T04:23:24.102Z,39.60
2019-02-23T04:25:52.832Z,31.50
2019-02-23T04:28:23.076Z,40.67
2019-02-23T04:30:51.849Z,34.07
2019-02-23T04:33:20.686Z,37.57
2019-02-23T04:35:49.436Z,33.33
2019-02-23T04:38:18.201Z,49.43
2019-02-23T04:40:46.945Z,40.83
2019-02-23T04:43:15.523Z,36.73
2019-02-23T04:45:44.205Z,39.07
2019-02-23T04:48:12.982Z,33.70
2019-02-23T04:50:41.561Z,37.80
2019-02-23T04:53:10.276Z,31.30
2019-02-23T04:55:39.003Z,36.53
2019-02-23T04:58:07.712Z,36.67
2019-02-23T05:00:36.486Z,33.97
2019-02-23T05:03:05.288Z,34.67
2019-02-23T05:05:33.922Z,35.70
2019-02-23T05:08:02.737Z,38.00
2019-02-23T05:10:31.480Z,35.10
2019-02-23T05:13:00.313Z,35.47
2019-02-23T05:15:29.093Z,36.07
2019-02-23T05:17:57.915Z,35.93
2019-02-23T05:20:26.655Z,36.80
2019-02-23T05:22:55.319Z,26.97
2019-02-23T05:25:24.104Z,28.33
2019-02-23T05:27:52.900Z,33.50
2019-02-23T05:30:21.746Z,26.47
2019-02-23T05:32:50.586Z,28.27
2019-02-23T05:35:19.538Z,30.97
2019-02-23T05:37:48.246Z,29.03
2019-02-23T05:40:17.035Z,29.00
2019-02-23T05:42:45.778Z,26.23
2019-02-23T05:45:14.591Z,29.40
2019-02-23T05:47:43.305Z,30.53
2019-02-23T05:50:12.246Z,28.90
2019-02-23T05:52:41.032Z,27.17
2019-02-23T05:55:09.824Z,29.07
2019-02-23T05:57:38.587Z,29.47
2019-02-23T06:00:10.217Z,30.63
2019-02-23T06:02:38.943Z,31.90
2019-02-23T06:05:08.101Z,30.40
2019-02-23T06:07:36.932Z,29.07
2019-02-23T06:10:08.631Z,27.73
2019-02-23T06:12:37.347Z,31.63
2019-02-23T06:15:09.267Z,25.80
2019-02-23T06:17:38.018Z,26.60
2019-02-23T06:20:08.451Z,27.97
2019-02-23T06:22:37.177Z,33.67
2019-02-23T06:25:07.838Z,33.30
2019-02-23T06:27:36.715Z,29.90
2019-02-23T06:30:09.109Z,28.30
2019-02-23T06:32:37.961Z,30.40
2019-02-23T06:35:08.988Z,26.67
2019-02-23T06:37:37.768Z,31.13
2019-02-23T06:40:09.194Z,33.53
2019-02-23T06:42:37.982Z,29.43
2019-02-23T06:45:09.749Z,31.60
2019-02-23T06:47:38.502Z,31.00
2019-02-23T06:50:08.397Z,29.70
2019-02-23T06:52:37.123Z,30.67
2019-02-23T06:55:07.191Z,31.20
2019-02-23T06:57:36.070Z,31.33
2019-02-23T07:00:07.598Z,29.53
2019-02-23T07:02:36.364Z,34.87
2019-02-23T07:05:05.475Z,30.63
2019-02-23T07:07:34.240Z,29.60
2019-02-23T07:10:03.262Z,28.70
2019-02-23T07:12:32.088Z,29.57
2019-02-23T07:15:00.764Z,27.90
2019-02-23T07:17:29.447Z,32.30
2019-02-23T07:19:58.222Z,25.93
2019-02-23T07:22:26.934Z,26.13
2019-02-23T07:24:55.759Z,26.83
2019-02-23T07:27:24.711Z,27.97
2019-02-23T07:29:55.521Z,24.40
2019-02-23T07:32:26.811Z,26.97
2019-02-23T07:34:58.567Z,27.33
2019-02-23T07:37:27.466Z,29.70
2019-02-23T07:39:56.346Z,27.10
2019-02-23T07:42:25.182Z,22.73
2019-02-23T07:45:01.763Z,28.67
2019-02-23T07:50:18.980Z,24.27
2019-02-23T07:52:47.797Z,22.10
2019-02-23T07:55:16.790Z,26.00
2019-02-23T07:57:45.731Z,23.67
2019-02-23T08:00:15.238Z,27.40
2019-02-23T08:02:43.955Z,25.40
2019-02-23T08:05:12.793Z,23.10
2019-02-23T08:07:42.961Z,21.17
2019-02-23T08:10:13.023Z,21.90
2019-02-23T08:12:42.478Z,29.03
2019-02-23T08:15:12.300Z,22.87
2019-02-23T08:17:41.789Z,22.93
2019-02-23T08:20:14.686Z,22.40
2019-02-23T08:22:43.520Z,21.43
2019-02-23T08:25:13.756Z,21.07
2019-02-23T08:27:42.629Z,20.57
2019-02-23T08:30:14.751Z,21.27
2019-02-23T08:32:43.985Z,19.47
2019-02-23T08:35:12.946Z,19.40
2019-02-23T08:37:41.741Z,19.87
2019-02-23T08:40:15.132Z,21.87
2019-02-23T08:42:45.123Z,16.27
2019-02-23T08:45:13.965Z,22.60
2019-02-23T08:47:42.806Z,16.53
2019-02-23T08:50:14.691Z,18.60
2019-02-23T08:52:49.288Z,17.97
2019-02-23T08:55:14.064Z,17.90
2019-02-23T08:57:43.262Z,16.27
2019-02-23T09:00:15.316Z,26.43
2019-02-23T09:02:44.136Z,19.70
2019-02-23T09:05:13.618Z,17.87
2019-02-23T09:07:42.442Z,23.03
2019-02-23T09:10:13.248Z,17.70
2019-02-23T09:12:42.290Z,21.00
2019-02-23T09:15:12.164Z,18.70
2019-02-23T09:17:40.957Z,20.87
2019-02-23T09:20:11.502Z,19.87
2019-02-23T09:22:40.457Z,17.17
2019-02-23T09:25:11.051Z,19.37
2019-02-23T09:27:39.947Z,20.03
2019-02-23T09:30:10.988Z,18.30
2019-02-23T09:32:39.805Z,14.73
2019-02-23T09:35:08.750Z,13.83
2019-02-23T09:37:37.603Z,14.97
2019-02-23T09:40:09.309Z,16.33
2019-02-23T09:42:38.346Z,15.53
2019-02-23T09:45:10.181Z,17.13
2019-02-23T09:47:39.073Z,14.20
2019-02-23T09:50:08.218Z,17.47
2019-02-23T09:52:36.976Z,14.70
2019-02-23T09:55:06.349Z,16.77
2019-02-23T09:57:35.171Z,14.67
2019-02-23T10:00:06.116Z,15.37
2019-02-23T10:02:34.887Z,19.23
2019-02-23T10:05:03.915Z,18.83
2019-02-23T10:07:32.670Z,16.70
2019-02-23T10:10:01.546Z,16.30
2019-02-23T10:12:30.433Z,14.83
2019-02-23T10:14:59.280Z,24.43
2019-02-23T10:17:28.270Z,19.00
2019-02-23T10:19:57.062Z,18.03
2019-02-23T10:22:25.840Z,18.47
2019-02-23T10:24:55.724Z,18.90
2019-02-23T10:27:24.543Z,13.87
2019-02-23T10:29:53.297Z,18.50
2019-02-23T10:32:22.149Z,19.40
2019-02-23T10:34:51.096Z,19.73
2019-02-23T10:37:21.231Z,18.97
2019-02-23T10:39:51.379Z,18.87
2019-02-23T10:42:20.205Z,16.60
2019-02-23T10:44:49.001Z,16.50
2019-02-23T10:47:19.744Z,16.40
2019-02-23T10:49:48.255Z,16.13
2019-02-23T10:52:17.303Z,16.53
2019-02-23T10:54:47.241Z,19.20
2019-02-23T10:57:16.151Z,15.43
2019-02-23T10:59:44.956Z,23.63
2019-02-23T11:02:14.405Z,14.47
2019-02-23T11:04:48.566Z,17.00
2019-02-23T11:07:17.393Z,15.90
2019-02-23T11:09:46.538Z,18.67
2019-02-23T11:12:15.712Z,19.47
2019-02-23T11:14:44.437Z,27.53
2019-02-23T11:17:13.318Z,17.87
2019-02-23T11:19:42.170Z,20.27
2019-02-23T11:22:12.120Z,17.83
2019-02-23T11:24:41.512Z,15.30
2019-02-23T11:27:10.746Z,16.03
2019-02-23T11:29:39.581Z,17.30
2019-02-23T11:32:08.379Z,17.70
2019-02-23T11:34:37.120Z,18.27
2019-02-23T11:37:07.423Z,20.67
2019-02-23T11:39:36.246Z,16.50
2019-02-23T11:42:05.347Z,16.40
2019-02-23T11:44:34.132Z,14.93
2019-02-23T11:47:04.627Z,17.63
2019-02-23T11:49:33.440Z,15.03
2019-02-23T11:52:02.266Z,18.70
2019-02-23T11:54:31.055Z,18.47
2019-02-23T11:56:59.789Z,19.40
2019-02-23T11:59:28.553Z,24.10
2019-02-23T12:02:01.084Z,23.43
2019-02-23T12:04:29.796Z,23.13
2019-02-23T12:07:00.168Z,18.57
2019-02-23T12:09:28.949Z,29.57
2019-02-23T12:11:59.189Z,22.00
2019-02-23T12:14:27.929Z,18.10
2019-02-23T12:16:56.896Z,25.30
2019-02-23T12:19:25.765Z,23.50
2019-02-23T12:21:54.565Z,25.80
2019-02-23T12:24:23.364Z,21.73
2019-02-23T12:26:52.204Z,22.33
2019-02-23T12:29:20.975Z,17.60
2019-02-23T12:31:49.902Z,19.70
2019-02-23T12:34:18.711Z,25.87
2019-02-23T12:36:47.495Z,28.67
2019-02-23T12:39:18.170Z,27.10
2019-02-23T12:41:49.985Z,27.00
2019-02-23T12:44:21.496Z,31.50
2019-02-23T12:46:53.024Z,21.30
2019-02-23T12:49:21.794Z,23.00
2019-02-23T12:51:53.150Z,24.03
2019-02-23T12:54:26.209Z,19.07
2019-02-23T13:00:24.245Z,19.50
2019-02-23T13:02:53.000Z,20.70
2019-02-23T13:05:21.779Z,18.73
2019-02-23T13:07:53.185Z,20.10
2019-02-23T13:10:24.651Z,20.17
2019-02-23T13:12:57.584Z,20.40
2019-02-23T13:15:29.328Z,21.60
2019-02-23T13:18:00.290Z,21.70
2019-02-23T13:20:31.279Z,21.20
2019-02-23T13:23:02.866Z,21.63
2019-02-23T13:25:34.438Z,20.77
2019-02-23T13:28:06.100Z,21.00
2019-02-23T13:30:37.840Z,26.70
2019-02-23T13:33:09.082Z,27.30
2019-02-23T13:35:41.050Z,22.97
2019-02-23T13:38:12.046Z,29.10
2019-02-23T13:40:43.639Z,22.90
2019-02-23T13:43:14.172Z,24.80
2019-02-23T13:45:45.749Z,23.47
2019-02-23T13:48:15.691Z,28.87
2019-02-23T13:50:47.330Z,21.17
2019-02-23T13:53:18.958Z,27.00
2019-02-23T13:55:48.969Z,33.83
2019-02-23T13:58:21.996Z,26.67
2019-02-23T14:00:53.688Z,24.10
2019-02-23T14:03:24.885Z,22.40
2019-02-23T14:05:56.470Z,25.20
2019-02-23T14:08:28.123Z,24.03
2019-02-23T14:10:59.766Z,26.47
2019-02-23T14:13:31.293Z,21.53
2019-02-23T14:16:01.205Z,19.70
2019-02-23T14:18:32.892Z,22.90
2019-02-23T14:21:03.988Z,28.53
2019-02-23T14:23:32.300Z,29.27
2019-02-23T14:26:02.723Z,21.70
2019-02-23T14:28:34.738Z,19.00
2019-02-23T14:31:05.487Z,24.97
2019-02-23T14:33:39.642Z,19.63
2019-02-23T14:36:09.654Z,15.70
2019-02-23T14:38:41.192Z,18.37
2019-02-23T14:41:13.107Z,23.43
2019-02-23T14:43:44.023Z,21.67
2019-02-23T14:46:15.886Z,24.00
2019-02-23T14:48:47.513Z,22.10
2019-02-23T14:51:19.110Z,20.57
2019-02-23T14:53:50.404Z,25.03
2019-02-23T14:56:20.555Z,23.03
2019-02-23T14:58:52.383Z,25.37
2019-02-23T15:01:22.461Z,23.77
2019-02-23T15:03:53.356Z,26.53
2019-02-23T15:06:24.445Z,23.40
2019-02-23T15:08:56.540Z,21.70
2019-02-23T15:11:28.183Z,25.53
2019-02-23T15:13:58.204Z,23.70
2019-02-23T15:16:29.821Z,22.40
2019-02-23T15:19:01.399Z,20.53
2019-02-23T15:21:32.933Z,23.73
2019-02-23T15:24:04.517Z,21.17
2019-02-23T15:26:37.643Z,23.00
2019-02-23T15:29:07.947Z,22.97
2019-02-23T15:31:39.650Z,22.63
2019-02-23T15:34:11.470Z,20.27
2019-02-23T15:36:43.104Z,25.33
2019-02-23T15:39:14.130Z,24.60
2019-02-23T15:41:45.830Z,24.60
2019-02-23T15:44:17.530Z,23.40
2019-02-23T15:46:49.089Z,24.80
2019-02-23T15:49:19.178Z,27.87
2019-02-23T15:51:47.984Z,26.33
2019-02-23T15:54:16.915Z,27.80
2019-02-23T15:56:45.733Z,22.23
2019-02-23T15:59:14.516Z,25.53
2019-02-23T16:01:44.516Z,23.03
2019-02-23T16:04:13.308Z,19.30
2019-02-23T16:06:42.168Z,18.23
2019-02-23T16:09:11.106Z,22.07
2019-02-23T16:11:39.949Z,17.50
2019-02-23T16:14:08.782Z,24.47
2019-02-23T16:16:37.599Z,20.90
2019-02-23T16:19:06.567Z,22.80
2019-02-23T16:21:36.717Z,21.67
2019-02-23T16:24:06.825Z,21.60
2019-02-23T16:26:38.436Z,22.57
2019-02-23T16:29:07.216Z,22.20
2019-02-23T16:31:35.994Z,23.73
2019-02-23T16:34:07.383Z,19.10
2019-02-23T16:36:35.482Z,21.23
2019-02-23T16:39:08.476Z,23.07
2019-02-23T16:41:37.261Z,19.67
2019-02-23T16:44:06.061Z,21.03
2019-02-23T16:46:34.811Z,20.60
2019-02-23T16:49:03.828Z,25.13
2019-02-23T16:51:32.735Z,18.63
2019-02-23T16:54:01.607Z,16.90
2019-02-23T16:56:30.478Z,27.20
2019-02-23T16:58:59.303Z,24.83
2019-02-23T17:01:28.866Z,20.77
2019-02-23T17:03:57.633Z,21.80
2019-02-23T17:06:26.444Z,20.90
2019-02-23T17:08:55.220Z,20.40
2019-02-23T17:11:23.989Z,23.00
2019-02-23T17:13:52.796Z,26.57
2019-02-23T17:16:23.919Z,18.93
2019-02-23T17:18:52.787Z,21.07
2019-02-23T17:21:21.533Z,25.20
2019-02-23T17:23:50.316Z,23.73
2019-02-23T17:26:19.464Z,22.50
2019-02-23T17:28:48.343Z,23.90
2019-02-23T17:31:17.176Z,26.97
2019-02-23T17:33:45.986Z,33.40
2019-02-23T17:36:14.730Z,34.57
2019-02-23T17:38:44.838Z,34.70
2019-02-23T17:41:13.771Z,37.53
2019-02-23T17:43:42.510Z,32.27
2019-02-23T17:46:11.301Z,31.00
2019-02-23T17:48:40.316Z,26.83
2019-02-23T17:51:09.014Z,31.57
2019-02-23T17:53:37.750Z,36.10
2019-02-23T17:56:12.188Z,43.03
2019-02-23T17:58:37.028Z,33.30
2019-02-23T18:01:05.670Z,36.63
2019-02-23T18:03:34.517Z,29.17
2019-02-23T18:06:03.406Z,30.27
2019-02-23T18:08:32.122Z,23.80
2019-02-23T18:11:01.006Z,27.87
2019-02-23T18:13:29.838Z,20.83
2019-02-23T18:15:59.302Z,26.30
2019-02-23T18:18:29.322Z,25.53
2019-02-23T18:20:58.115Z,36.90
2019-02-23T18:23:26.954Z,25.73
2019-02-23T18:25:55.734Z,25.13
2019-02-23T18:28:24.646Z,27.33
2019-02-23T18:30:53.444Z,31.67
2019-02-23T18:33:22.307Z,30.00
2019-02-23T18:35:51.140Z,32.10
2019-02-23T18:38:19.997Z,29.87
2019-02-23T18:40:48.851Z,34.77
2019-02-23T18:43:17.591Z,32.67
2019-02-23T18:45:47.668Z,38.63
2019-02-23T18:48:16.678Z,35.20
2019-02-23T18:50:45.537Z,33.53
2019-02-23T18:53:14.378Z,31.97
2019-02-23T18:55:43.209Z,34.77
2019-02-23T18:58:12.018Z,28.80
2019-02-23T19:00:40.790Z,31.87
2019-02-23T19:03:09.620Z,31.57
2019-02-23T19:05:38.476Z,33.23
2019-02-23T19:08:07.283Z,33.27
2019-02-23T19:10:36.219Z,34.77
2019-02-23T19:13:05.010Z,34.23
2019-02-23T19:15:33.742Z,29.70
2019-02-23T19:18:02.636Z,33.67
2019-02-23T19:20:31.558Z,33.80
2019-02-23T19:23:00.463Z,37.53
2019-02-23T19:25:29.359Z,39.97
2019-02-23T19:27:58.095Z,34.60
2019-02-23T19:30:27.087Z,32.27
2019-02-23T19:32:55.958Z,34.40
2019-02-23T19:35:24.819Z,34.37
2019-02-23T19:37:53.564Z,36.10
2019-02-23T19:40:22.373Z,28.63
2019-02-23T19:42:50.961Z,28.30
2019-02-23T19:45:19.765Z,29.20
2019-02-23T19:47:49.144Z,30.03
2019-02-23T19:50:21.181Z,24.90
2019-02-23T19:52:50.108Z,30.10
2019-02-23T19:55:18.984Z,32.07
2019-02-23T19:57:47.802Z,32.90
2019-02-23T20:00:16.587Z,27.40
2019-02-23T20:02:45.366Z,24.40
2019-02-23T20:05:14.241Z,35.23
2019-02-23T20:07:43.046Z,29.20
2019-02-23T20:10:11.987Z,34.23
2019-02-23T20:12:40.690Z,32.70
2019-02-23T20:15:11.131Z,34.30
2019-02-23T20:17:39.954Z,39.17
2019-02-23T20:20:09.581Z,36.13
2019-02-23T20:22:38.358Z,29.60
2019-02-23T20:25:09.031Z,28.57
2019-02-23T20:27:37.768Z,37.40
2019-02-23T20:30:25.868Z,75.90
2019-02-23T20:32:54.588Z,40.00
2019-02-23T20:35:23.384Z,45.40
2019-02-23T20:37:52.348Z,36.00
2019-02-23T20:40:21.149Z,35.90
2019-02-23T20:42:49.970Z,39.33
2019-02-23T20:45:18.854Z,36.50
2019-02-23T20:47:47.771Z,32.80
2019-02-23T20:50:16.611Z,47.33
2019-02-23T20:52:45.464Z,45.30
2019-02-23T20:55:14.306Z,40.23
2019-02-23T20:57:43.066Z,28.57
2019-02-23T21:00:12.631Z,32.33
2019-02-23T21:02:41.998Z,27.87
2019-02-23T21:05:12.996Z,27.90
2019-02-23T21:07:42.835Z,49.03
2019-02-23T21:10:11.747Z,72.73
2019-02-23T21:12:40.640Z,70.93
2019-02-23T21:15:10.976Z,44.53
2019-02-23T21:17:39.816Z,44.97
2019-02-23T21:20:10.455Z,45.73
2019-02-23T21:22:39.997Z,32.93
2019-02-23T21:25:09.964Z,28.27
2019-02-23T21:27:38.746Z,31.10
2019-02-23T21:30:09.823Z,27.93
2019-02-23T21:32:38.677Z,31.20
2019-02-23T21:35:08.624Z,32.77
2019-02-23T21:37:37.453Z,28.70
2019-02-23T21:40:08.937Z,30.63
2019-02-23T21:42:37.821Z,33.17
2019-02-23T21:45:08.807Z,35.67
2019-02-23T21:47:37.661Z,32.13
2019-02-23T21:50:09.210Z,23.90
2019-02-23T21:52:37.995Z,24.50
2019-02-23T21:55:07.083Z,29.40
2019-02-23T21:57:35.847Z,24.57
2019-02-23T22:00:07.329Z,25.50
2019-02-23T22:02:36.085Z,32.23
2019-02-23T22:05:11.925Z,26.33
2019-02-23T22:07:36.500Z,32.87
2019-02-23T22:10:08.286Z,23.53
2019-02-23T22:12:37.269Z,26.37
2019-02-23T22:15:07.439Z,23.20
2019-02-23T22:17:36.345Z,24.37
2019-02-23T22:20:08.907Z,24.00
2019-02-23T22:22:37.913Z,26.50
2019-02-23T22:25:07.031Z,23.03
2019-02-23T22:27:35.888Z,18.37
2019-02-23T22:30:05.807Z,20.67
2019-02-23T22:32:37.544Z,20.30
2019-02-23T22:35:06.845Z,21.03
2019-02-23T22:37:35.748Z,15.83
2019-02-23T22:40:06.601Z,19.87
2019-02-23T22:42:35.468Z,20.87
2019-02-23T22:45:08.010Z,24.63
2019-02-23T22:47:36.845Z,19.23
2019-02-23T22:50:07.995Z,19.63
2019-02-23T22:52:36.794Z,20.10
2019-02-23T22:55:06.303Z,26.23
2019-02-23T22:57:40.638Z,20.53
2019-02-23T23:00:08.824Z,18.40
2019-02-23T23:02:37.696Z,21.50
2019-02-23T23:05:07.199Z,19.70
2019-02-23T23:07:36.338Z,15.13
2019-02-23T23:10:07.096Z,22.30
2019-02-23T23:12:36.126Z,20.93
2019-02-23T23:15:08.651Z,18.50
2019-02-23T23:17:37.367Z,18.83
2019-02-23T23:20:08.120Z,17.87
2019-02-23T23:22:36.877Z,22.90
2019-02-23T23:25:07.350Z,20.20
2019-02-23T23:27:36.038Z,16.33
2019-02-23T23:30:07.142Z,17.97
2019-02-23T23:32:35.942Z,20.80
2019-02-23T23:35:05.637Z,21.37
2019-02-23T23:37:34.586Z,21.60
2019-02-23T23:40:03.709Z,17.60
2019-02-23T23:42:33.221Z,21.50
2019-02-23T23:45:03.979Z,18.93
2019-02-23T23:47:32.811Z,19.67
2019-02-23T23:50:01.505Z,16.27
2019-02-23T23:52:32.734Z,15.30
2019-02-23T23:55:01.517Z,15.60
2019-02-23T23:57:30.236Z,24.10
